Time;durP1;ratioP1;P1;durP2;ratioP2;P2;SDS_P1;SDS_P2;PMS_P1;PMS_P2;Temp;Humidity;BMP_temperature;BMP_pressure;BME280_temperature;BME280_humidity;BME280_pressure;Samples;Min_cycle;Max_cycle;Signal;HPM_P1;HPM_P2
2021/12/19 00:00:15;;;;;;;8.07;5.20;;;2.80;99.90;;;;;;5089318;28;20960;-71
2021/12/19 00:02:59;;;;;;;7.60;5.37;;;2.90;99.90;;;;;;5091662;28;20455;-71
2021/12/19 00:08:38;;;;;;;7.87;5.50;;;2.90;99.90;;;;;;5093704;28;20435;-71
2021/12/19 00:11:05;;;;;;;7.40;4.80;;;2.90;99.90;;;;;;5093308;28;20468;-71
2021/12/19 00:13:32;;;;;;;7.40;5.00;;;2.80;99.90;;;;;;5093223;28;20952;-71
2021/12/19 00:15:59;;;;;;;8.70;5.50;;;2.80;99.90;;;;;;5093316;28;20447;-71
2021/12/19 00:18:26;;;;;;;6.60;4.77;;;2.80;99.90;;;;;;5093671;28;20923;-70
2021/12/19 00:20:55;;;;;;;9.60;6.30;;;2.80;99.90;;;;;;5093542;28;20467;-70
2021/12/19 00:23:22;;;;;;;8.60;5.33;;;2.60;99.90;;;;;;5093122;28;20465;-71
2021/12/19 00:25:49;;;;;;;8.40;6.47;;;2.60;99.90;;;;;;5093193;28;20484;-71
2021/12/19 00:28:16;;;;;;;9.47;5.20;;;2.50;99.90;;;;;;5092720;28;20456;-70
2021/12/19 00:30:44;;;;;;;8.60;5.60;;;2.50;99.90;;;;;;5093137;28;20475;-71
2021/12/19 00:33:11;;;;;;;8.53;5.20;;;2.50;99.90;;;;;;5093327;28;20459;-70
2021/12/19 00:35:38;;;;;;;9.30;6.40;;;2.60;99.90;;;;;;5093209;28;20444;-70
2021/12/19 00:38:07;;;;;;;8.33;5.97;;;2.60;99.90;;;;;;5092483;28;20454;-70
2021/12/19 00:40:35;;;;;;;6.90;5.40;;;2.60;99.90;;;;;;5092876;28;20583;-70
2021/12/19 00:43:06;;;;;;;7.40;5.27;;;2.40;99.90;;;;;;5092803;28;20942;-70
2021/12/19 00:45:35;;;;;;;7.77;6.03;;;2.40;99.90;;;;;;5092409;28;20487;-71
2021/12/19 00:48:05;;;;;;;10.10;6.60;;;2.40;99.90;;;;;;5092954;28;20556;-70
2021/12/19 00:50:34;;;;;;;7.70;5.13;;;2.30;99.90;;;;;;5092431;28;20982;-71
2021/12/19 00:53:01;;;;;;;7.50;5.57;;;2.30;99.90;;;;;;5092522;28;20919;-70
2021/12/19 00:55:31;;;;;;;10.40;6.63;;;2.20;99.90;;;;;;5091280;28;20448;-70
2021/12/19 00:57:58;;;;;;;9.00;6.27;;;2.10;99.90;;;;;;5092760;28;20458;-71
2021/12/19 01:00:28;;;;;;;7.60;6.00;;;2.00;99.90;;;;;;5092347;28;20470;-70
2021/12/19 01:02:58;;;;;;;10.60;6.43;;;2.00;99.90;;;;;;5092338;28;20461;-70
2021/12/19 01:05:26;;;;;;;8.70;6.03;;;2.00;99.90;;;;;;5092599;28;20455;-70
2021/12/19 01:07:54;;;;;;;8.10;6.87;;;2.10;99.90;;;;;;5092481;28;20457;-70
2021/12/19 01:10:21;;;;;;;9.07;6.30;;;2.20;99.90;;;;;;5092483;28;20459;-71
2021/12/19 01:12:50;;;;;;;10.17;7.00;;;2.20;99.90;;;;;;5091405;28;20491;-71
2021/12/19 01:15:19;;;;;;;8.83;6.80;;;2.00;99.90;;;;;;5091510;28;20931;-70
2021/12/19 01:17:46;;;;;;;7.70;6.27;;;2.00;99.90;;;;;;5092170;28;20461;-71
2021/12/19 01:20:17;;;;;;;9.90;6.53;;;2.10;99.90;;;;;;5092129;28;20454;-71
2021/12/19 01:22:44;;;;;;;9.47;7.50;;;2.10;99.90;;;;;;5092381;28;20867;-70
2021/12/19 01:25:12;;;;;;;9.40;7.30;;;2.10;99.90;;;;;;5092071;28;20448;-70
2021/12/19 01:27:39;;;;;;;9.73;6.00;;;2.20;99.90;;;;;;5091926;28;20517;-70
2021/12/19 01:30:09;;;;;;;7.43;6.70;;;2.20;99.90;;;;;;5092156;28;20455;-70
2021/12/19 01:32:37;;;;;;;9.67;6.67;;;2.20;99.90;;;;;;5091847;28;20920;-70
2021/12/19 01:35:05;;;;;;;13.37;7.30;;;2.20;99.90;;;;;;5091987;28;20870;-70
2021/12/19 01:37:32;;;;;;;12.77;8.03;;;2.20;99.90;;;;;;5091903;28;20491;-71
2021/12/19 01:39:59;;;;;;;8.80;6.93;;;2.30;99.90;;;;;;5091973;28;20457;-71
2021/12/19 01:42:31;;;;;;;13.73;6.67;;;2.20;99.90;;;;;;5091327;28;20479;-71
2021/12/19 01:44:58;;;;;;;9.10;6.73;;;2.10;99.90;;;;;;5091646;28;20503;-70
2021/12/19 01:47:27;;;;;;;9.80;7.30;;;2.00;99.90;;;;;;5091787;28;20489;-70
2021/12/19 01:49:56;;;;;;;9.60;7.20;;;2.10;99.90;;;;;;5091771;28;20456;-71
2021/12/19 01:52:24;;;;;;;9.70;6.77;;;2.20;99.90;;;;;;5091488;28;20467;-71
2021/12/19 01:54:52;;;;;;;7.87;6.33;;;2.30;99.90;;;;;;5091642;28;20938;-70
2021/12/19 01:57:22;;;;;;;7.90;6.03;;;2.30;99.90;;;;;;5091716;28;20926;-70
2021/12/19 01:59:49;;;;;;;10.00;6.70;;;2.30;99.90;;;;;;5091351;28;20507;-69
2021/12/19 02:02:16;;;;;;;10.10;6.40;;;2.20;99.90;;;;;;5091194;28;20532;-70
2021/12/19 02:04:46;;;;;;;8.60;6.43;;;1.90;99.90;;;;;;5091532;28;20516;-70
2021/12/19 02:07:14;;;;;;;9.13;6.00;;;1.90;99.90;;;;;;5090675;28;20494;-70
2021/12/19 02:09:43;;;;;;;8.97;7.13;;;1.90;99.90;;;;;;5090956;28;20941;-70
2021/12/19 02:12:12;;;;;;;8.80;7.07;;;1.90;99.90;;;;;;5090911;28;20499;-70
2021/12/19 02:14:40;;;;;;;8.17;6.50;;;2.00;99.90;;;;;;5091098;28;20805;-71
2021/12/19 02:17:07;;;;;;;9.40;6.03;;;2.10;99.90;;;;;;5091506;28;20842;-70
2021/12/19 02:19:34;;;;;;;11.13;8.00;;;2.00;99.90;;;;;;5090742;28;21032;-70
2021/12/19 02:22:03;;;;;;;11.70;7.47;;;2.10;99.90;;;;;;5090906;28;20471;-70
2021/12/19 02:24:30;;;;;;;7.70;6.67;;;2.20;99.90;;;;;;5090766;28;20451;-70
2021/12/19 02:26:57;;;;;;;9.30;6.50;;;2.10;99.90;;;;;;5090885;28;20528;-70
2021/12/19 02:29:24;;;;;;;8.60;6.10;;;2.10;99.90;;;;;;5090618;28;20444;-70
2021/12/19 02:31:51;;;;;;;9.87;6.80;;;2.30;99.90;;;;;;5091002;28;20474;-70
2021/12/19 02:34:22;;;;;;;9.87;6.90;;;2.30;99.90;;;;;;5090934;28;20451;-69
2021/12/19 02:36:58;;;;;;;9.53;7.43;;;2.40;99.90;;;;;;5090619;28;20521;-71
2021/12/19 02:39:53;;;;;;;10.27;7.10;;;2.40;99.90;;;;;;5090842;28;20477;-70
2021/12/19 02:50:32;;;;;;;11.10;7.70;;;2.40;99.90;;;;;;5090379;28;20524;-71
2021/12/19 02:52:59;;;;;;;8.87;6.43;;;2.40;99.90;;;;;;5090684;28;20939;-71
2021/12/19 02:55:28;;;;;;;9.93;7.10;;;2.40;99.90;;;;;;5090227;28;20457;-70
2021/12/19 02:57:55;;;;;;;8.40;6.60;;;2.50;99.90;;;;;;5090510;28;20458;-71
2021/12/19 03:00:27;;;;;;;9.30;6.73;;;2.40;99.90;;;;;;5089967;28;20448;-70
2021/12/19 03:02:55;;;;;;;10.20;6.50;;;2.70;99.90;;;;;;5090547;28;20436;-71
2021/12/19 03:05:22;;;;;;;7.93;6.47;;;2.30;99.90;;;;;;5090313;28;20510;-71
2021/12/19 03:07:51;;;;;;;9.13;6.70;;;2.30;99.90;;;;;;5090164;28;20486;-71
2021/12/19 03:13:22;;;;;;;9.80;7.83;;;2.40;99.90;;;;;;5086261;28;20979;-71
2021/12/19 03:18:39;;;;;;;9.80;7.63;;;2.50;99.90;;;;;;5090104;28;20428;-70
2021/12/19 03:21:10;;;;;;;10.10;7.13;;;2.60;99.90;;;;;;5089627;28;20467;-70
2021/12/19 03:23:37;;;;;;;10.20;7.40;;;2.70;99.90;;;;;;5090032;28;20816;-70
2021/12/19 03:26:04;;;;;;;11.43;7.27;;;2.70;99.90;;;;;;5089709;28;20474;-70
2021/12/19 03:28:33;;;;;;;12.70;7.20;;;2.60;99.90;;;;;;5090094;28;20448;-70
2021/12/19 03:31:02;;;;;;;12.70;8.03;;;2.60;99.90;;;;;;5089796;28;20887;-70
2021/12/19 03:33:30;;;;;;;10.00;5.90;;;2.60;99.90;;;;;;5089826;28;20458;-70
2021/12/19 03:35:57;;;;;;;10.20;6.60;;;2.70;99.90;;;;;;5089234;28;20445;-70
2021/12/19 03:38:26;;;;;;;8.00;6.27;;;2.50;99.90;;;;;;5089451;28;20451;-70
2021/12/19 03:41:08;;;;;;;10.30;7.70;;;2.40;99.90;;;;;;5089583;28;20972;-70
2021/12/19 03:43:37;;;;;;;9.90;6.90;;;2.30;99.90;;;;;;5089256;28;20447;-70
2021/12/19 03:46:04;;;;;;;8.53;6.80;;;2.30;99.90;;;;;;5089681;28;20452;-70
2021/12/19 03:48:31;;;;;;;10.37;8.13;;;2.20;99.90;;;;;;5089774;28;21274;-70
2021/12/19 03:50:59;;;;;;;9.80;7.60;;;2.30;99.90;;;;;;5089245;28;20958;-70
2021/12/19 03:53:27;;;;;;;10.77;6.50;;;2.30;99.90;;;;;;5089560;28;20452;-70
2021/12/19 03:55:54;;;;;;;8.60;6.60;;;2.40;99.90;;;;;;5089552;28;20448;-70
2021/12/19 03:58:22;;;;;;;9.23;6.53;;;2.40;99.90;;;;;;5089153;28;20442;-70
2021/12/19 04:00:52;;;;;;;7.90;6.30;;;2.50;99.90;;;;;;5089324;28;20497;-70
2021/12/19 04:03:20;;;;;;;9.33;6.27;;;2.60;99.90;;;;;;5089635;28;20546;-71
2021/12/19 04:05:49;;;;;;;8.23;6.10;;;2.60;99.90;;;;;;5089436;28;20532;-71
2021/12/19 04:08:17;;;;;;;8.70;6.93;;;2.50;99.90;;;;;;5088892;28;21041;-70
2021/12/19 04:10:46;;;;;;;8.90;6.90;;;2.30;99.90;;;;;;5089191;28;20479;-70
2021/12/19 04:13:13;;;;;;;9.37;6.73;;;2.10;99.90;;;;;;5089296;28;20547;-70
2021/12/19 04:15:40;;;;;;;11.00;7.13;;;2.00;99.90;;;;;;5089599;28;20459;-70
2021/12/19 04:18:09;;;;;;;9.30;6.40;;;1.90;99.90;;;;;;5089430;28;20490;-71
2021/12/19 04:20:36;;;;;;;10.43;7.00;;;1.90;99.90;;;;;;5089227;28;20507;-71
2021/12/19 04:23:04;;;;;;;11.30;7.13;;;2.00;99.90;;;;;;5089397;28;20455;-70
2021/12/19 04:25:31;;;;;;;11.00;7.17;;;1.90;99.90;;;;;;5089222;28;20458;-70
2021/12/19 04:27:59;;;;;;;9.43;6.83;;;1.80;99.90;;;;;;5089483;28;20542;-70
2021/12/19 04:30:26;;;;;;;7.50;5.97;;;1.90;99.90;;;;;;5089370;28;20969;-70
2021/12/19 04:33:01;;;;;;;10.00;6.53;;;1.90;99.90;;;;;;5089373;28;20550;-70
2021/12/19 04:35:33;;;;;;;9.43;6.60;;;1.90;99.90;;;;;;5089257;28;20519;-71
2021/12/19 04:40:52;;;;;;;10.57;6.83;;;2.20;99.90;;;;;;5086871;28;21015;-70
2021/12/19 04:54:33;;;;;;;10.23;6.27;;;1.90;99.90;;;;;;5093715;27;20452;-70
2021/12/19 04:57:09;;;;;;;10.60;7.23;;;2.00;99.90;;;;;;5092476;28;20511;-70
2021/12/19 04:59:51;;;;;;;10.80;7.37;;;2.10;99.90;;;;;;5092364;28;20452;-70
2021/12/19 05:02:30;;;;;;;9.17;6.47;;;2.20;99.90;;;;;;5092733;28;20490;-71
2021/12/19 05:15:56;;;;;;;9.30;6.03;;;2.20;99.90;;;;;;5092506;28;20476;-71
2021/12/19 05:18:27;;;;;;;12.63;6.70;;;2.20;99.90;;;;;;5092247;28;20446;-71
2021/12/19 05:20:57;;;;;;;9.30;6.37;;;2.20;99.90;;;;;;5092151;28;20481;-71
2021/12/19 05:23:35;;;;;;;9.13;5.97;;;2.30;99.90;;;;;;5092321;28;20493;-71
2021/12/19 05:26:03;;;;;;;9.70;6.23;;;2.30;99.90;;;;;;5091880;28;20943;-71
2021/12/19 05:28:30;;;;;;;9.57;6.23;;;2.40;99.90;;;;;;5092345;28;20485;-70
2021/12/19 05:30:57;;;;;;;8.40;6.60;;;2.50;99.90;;;;;;5091969;28;20470;-71
2021/12/19 05:33:24;;;;;;;9.40;6.27;;;2.60;99.90;;;;;;5091933;28;20543;-70
2021/12/19 05:36:08;;;;;;;8.80;5.77;;;2.60;99.90;;;;;;5092184;28;20456;-71
2021/12/19 05:45:11;;;;;;;10.83;7.00;;;2.70;99.90;;;;;;5092113;28;20440;-71
2021/12/19 05:46:58;;;;;;;10.20;6.53;;;2.70;99.90;;;;;;5091404;28;20972;-71
2021/12/19 05:49:25;;;;;;;10.27;7.30;;;2.90;99.90;;;;;;5091486;28;20584;-71
2021/12/19 05:51:52;;;;;;;12.63;8.23;;;2.90;99.90;;;;;;5091547;28;20483;-71
2021/12/19 05:54:21;;;;;;;11.03;7.33;;;2.90;99.90;;;;;;5090369;28;20449;-71
2021/12/19 05:56:48;;;;;;;9.70;7.20;;;;;;;;;;5091423;28;20464;-70
2021/12/19 05:59:16;;;;;;;9.80;7.53;;;2.90;99.90;;;;;;5090331;28;20539;-70
2021/12/19 06:01:45;;;;;;;9.90;7.00;;;2.80;99.90;;;;;;5091492;28;20554;-70
2021/12/19 06:04:13;;;;;;;12.33;7.63;;;2.70;99.90;;;;;;5091498;28;20834;-70
2021/12/19 06:06:40;;;;;;;10.10;7.15;;;2.60;99.90;;;;;;5091722;28;20463;-70
2021/12/19 06:09:07;;;;;;;8.27;6.37;;;2.50;99.90;;;;;;5091535;28;20448;-70
2021/12/19 06:11:35;;;;;;;9.30;6.40;;;2.50;99.90;;;;;;5090823;28;20881;-69
2021/12/19 06:14:02;;;;;;;11.17;7.77;;;2.50;99.90;;;;;;5091003;28;20542;-70
2021/12/19 06:16:30;;;;;;;11.03;7.20;;;2.70;99.90;;;;;;5091202;28;20459;-70
2021/12/19 06:18:57;;;;;;;10.73;6.87;;;2.70;99.90;;;;;;5091044;28;20452;-70
2021/12/19 06:21:24;;;;;;;9.60;6.60;;;2.70;99.90;;;;;;5091302;28;20475;-70
2021/12/19 06:23:51;;;;;;;9.43;7.17;;;2.70;99.90;;;;;;5091523;28;20452;-70
2021/12/19 06:26:18;;;;;;;10.77;6.60;;;2.70;99.90;;;;;;5091005;28;20447;-71
2021/12/19 06:28:46;;;;;;;11.27;6.30;;;2.80;99.90;;;;;;5091165;28;20536;-70
2021/12/19 06:31:13;;;;;;;14.87;6.00;;;2.90;99.90;;;;;;5090713;28;20478;-70
2021/12/19 06:33:40;;;;;;;10.17;6.67;;;3.00;99.90;;;;;;5090998;28;20448;-70
2021/12/19 06:36:09;;;;;;;10.70;6.60;;;3.00;99.90;;;;;;5090961;28;20452;-70
2021/12/19 06:38:36;;;;;;;8.53;7.20;;;2.90;99.90;;;;;;5090574;28;20802;-71
2021/12/19 06:41:03;;;;;;;11.40;6.33;;;2.90;99.90;;;;;;5090393;28;20964;-71
2021/12/19 06:43:32;;;;;;;9.60;7.23;;;3.00;99.90;;;;;;5090701;28;20462;-70
2021/12/19 06:46:01;;;;;;;14.43;8.03;;;2.90;99.90;;;;;;5090915;28;20859;-71
2021/12/19 06:48:28;;;;;;;13.10;7.60;;;2.70;99.90;;;;;;5090741;28;20492;-70
2021/12/19 06:50:57;;;;;;;10.00;7.53;;;2.60;99.90;;;;;;5090679;28;20879;-70
2021/12/19 06:53:24;;;;;;;11.37;8.30;;;2.70;99.90;;;;;;5090550;28;20538;-70
2021/12/19 06:55:52;;;;;;;13.37;8.90;;;2.70;99.90;;;;;;5090438;28;20508;-69
2021/12/19 06:58:19;;;;;;;12.40;8.97;;;2.80;99.90;;;;;;5090309;28;20501;-70
2021/12/19 07:00:46;;;;;;;13.70;8.97;;;2.80;99.90;;;;;;5090468;28;20462;-70
2021/12/19 07:03:15;;;;;;;11.83;6.33;;;2.80;99.90;;;;;;5090405;28;20457;-70
2021/12/19 07:05:43;;;;;;;9.50;6.90;;;2.80;99.90;;;;;;5090353;28;20486;-71
2021/12/19 07:08:10;;;;;;;15.47;9.07;;;2.80;99.90;;;;;;5089994;28;20483;-70
2021/12/19 07:10:37;;;;;;;11.40;7.63;;;2.80;99.90;;;;;;5089897;28;20518;-71
2021/12/19 07:13:04;;;;;;;10.40;7.93;;;3.00;99.90;;;;;;5089256;28;20487;-70
2021/12/19 07:15:31;;;;;;;9.87;7.63;;;3.10;99.90;;;;;;5088969;28;20974;-70
2021/12/19 07:18:02;;;;;;;12.60;7.20;;;3.00;99.90;;;;;;5089974;28;20503;-70
2021/12/19 07:20:31;;;;;;;10.30;7.80;;;3.00;99.90;;;;;;5089720;28;20507;-71
2021/12/19 07:22:58;;;;;;;10.43;8.33;;;3.20;99.90;;;;;;5090395;28;20453;-70
2021/12/19 07:25:25;;;;;;;11.97;8.03;;;3.30;99.90;;;;;;5090010;28;20842;-71
2021/12/19 07:27:53;;;;;;;11.50;7.87;;;3.40;99.90;;;;;;5089976;28;20490;-70
2021/12/19 07:30:20;;;;;;;11.57;8.20;;;3.30;99.90;;;;;;5089928;28;20458;-70
2021/12/19 07:32:47;;;;;;;14.00;9.00;;;3.20;99.90;;;;;;5089944;28;20447;-70
2021/12/19 07:35:14;;;;;;;14.33;8.90;;;3.40;99.90;;;;;;5089907;28;20449;-69
2021/12/19 07:37:45;;;;;;;15.03;9.73;;;3.60;99.90;;;;;;5089626;28;20459;-70
2021/12/19 07:40:14;;;;;;;13.17;8.43;;;3.60;99.90;;;;;;5089490;28;20463;-70
2021/12/19 07:42:42;;;;;;;14.43;8.20;;;3.70;99.90;;;;;;5089948;28;20456;-70
2021/12/19 07:45:10;;;;;;;12.33;8.27;;;3.60;99.90;;;;;;5089809;28;20452;-70
2021/12/19 07:47:38;;;;;;;11.80;8.67;;;3.60;99.90;;;;;;5089596;28;20975;-70
2021/12/19 07:50:07;;;;;;;19.03;9.13;;;3.50;99.90;;;;;;5089257;28;20537;-71
2021/12/19 07:52:34;;;;;;;11.93;7.83;;;3.60;99.90;;;;;;5089538;28;20825;-70
2021/12/19 07:55:04;;;;;;;11.60;8.37;;;3.60;99.90;;;;;;5089944;28;20501;-70
2021/12/19 07:57:31;;;;;;;11.10;7.53;;;3.70;99.90;;;;;;5089486;28;20841;-70
2021/12/19 07:59:58;;;;;;;13.67;8.33;;;3.50;99.90;;;;;;5088961;28;20474;-69
2021/12/19 08:02:25;;;;;;;14.00;8.77;;;3.50;99.90;;;;;;5089457;28;20467;-69
2021/12/19 08:04:52;;;;;;;11.53;8.50;;;3.50;99.90;;;;;;5089638;28;20527;-69
2021/12/19 08:07:23;;;;;;;10.40;7.43;;;3.60;99.90;;;;;;5089600;28;20446;-69
2021/12/19 08:10:00;;;;;;;9.27;6.23;;;3.90;99.90;;;;;;5089614;28;20464;-74
2021/12/19 08:12:28;;;;;;;13.97;8.10;;;3.80;99.90;;;;;;5089082;28;20502;-72
2021/12/19 08:14:55;;;;;;;10.43;6.77;;;3.90;99.90;;;;;;5089136;28;20491;-72
2021/12/19 08:17:22;;;;;;;12.97;7.57;;;3.90;99.90;;;;;;5089256;28;20991;-73
2021/12/19 08:19:50;;;;;;;10.77;7.03;;;3.70;99.90;;;;;;5089422;28;20937;-74
2021/12/19 08:22:18;;;;;;;14.10;7.60;;;3.90;99.90;;;;;;5089494;28;20559;-74
2021/12/19 08:24:45;;;;;;;13.67;8.20;;;3.90;99.90;;;;;;5093458;28;20523;-73
2021/12/19 08:27:13;;;;;;;13.97;7.90;;;4.20;99.90;;;;;;5093170;28;21013;-70
2021/12/19 08:29:41;;;;;;;11.90;7.87;;;4.30;99.90;;;;;;5092746;28;20497;-73
2021/12/19 08:32:09;;;;;;;12.57;8.80;;;4.30;99.90;;;;;;5092741;28;20487;-72
2021/12/19 08:34:37;;;;;;;10.97;7.60;;;4.40;99.90;;;;;;5093243;28;20452;-74
2021/12/19 08:37:04;;;;;;;11.20;7.33;;;4.50;99.90;;;;;;5093282;28;20927;-73
2021/12/19 08:39:33;;;;;;;13.77;7.60;;;4.50;99.90;;;;;;5092849;28;20455;-72
2021/12/19 08:42:00;;;;;;;12.57;7.50;;;4.40;99.90;;;;;;5092924;28;20483;-72
2021/12/19 08:44:27;;;;;;;14.03;7.70;;;4.40;99.90;;;;;;5092992;28;20459;-70
2021/12/19 08:46:56;;;;;;;12.93;7.60;;;4.30;99.90;;;;;;5092370;28;20456;-70
2021/12/19 08:49:23;;;;;;;11.27;7.70;;;4.10;99.90;;;;;;5092733;28;20491;-71
2021/12/19 08:51:50;;;;;;;10.80;7.50;;;4.00;99.90;;;;;;5092759;28;20536;-71
2021/12/19 08:54:17;;;;;;;14.67;8.50;;;4.00;99.90;;;;;;5092359;28;20464;-72
2021/12/19 08:56:45;;;;;;;13.53;8.13;;;4.00;99.90;;;;;;5092538;28;20538;-71
2021/12/19 08:59:12;;;;;;;9.63;7.43;;;3.90;99.90;;;;;;5092392;28;20445;-70
2021/12/19 09:01:39;;;;;;;12.10;7.10;;;3.90;99.90;;;;;;5092368;28;20544;-72
2021/12/19 09:04:08;;;;;;;11.80;7.23;;;3.90;99.90;;;;;;5092903;28;20453;-71
2021/12/19 09:06:35;;;;;;;12.03;7.20;;;3.80;99.90;;;;;;5092464;28;20517;-70
2021/12/19 09:09:05;;;;;;;10.73;7.90;;;3.90;99.90;;;;;;5092255;28;20892;-70
2021/12/19 09:11:32;;;;;;;12.10;7.70;;;4.10;99.90;;;;;;5092429;28;20837;-70
2021/12/19 09:13:59;;;;;;;15.00;8.60;;;4.00;99.90;;;;;;5092386;28;20929;-70
2021/12/19 09:16:27;;;;;;;18.60;6.37;;;3.90;99.90;;;;;;5092465;28;20467;-73
2021/12/19 09:18:56;;;;;;;10.90;7.57;;;3.90;99.90;;;;;;5092445;28;20989;-72
2021/12/19 09:21:24;;;;;;;10.20;7.70;;;3.90;99.90;;;;;;5091732;28;20468;-70
2021/12/19 09:23:52;;;;;;;11.17;7.23;;;4.10;99.90;;;;;;5092221;28;20455;-70
2021/12/19 09:26:19;;;;;;;11.13;7.07;;;4.20;99.90;;;;;;5092488;28;20455;-70
2021/12/19 09:28:46;;;;;;;11.80;7.83;;;4.00;99.90;;;;;;5092441;28;20960;-69
2021/12/19 09:31:13;;;;;;;13.77;9.17;;;3.90;99.90;;;;;;5091888;28;20525;-69
2021/12/19 09:33:40;;;;;;;11.70;7.80;;;4.00;99.90;;;;;;5091825;28;20493;-69
2021/12/19 09:36:08;;;;;;;14.80;8.30;;;4.10;99.90;;;;;;5090672;28;20469;-70
2021/12/19 09:38:36;;;;;;;12.93;8.77;;;4.10;99.90;;;;;;5091928;28;20456;-72
2021/12/19 09:41:13;;;;;;;15.37;8.30;;;4.30;99.90;;;;;;5091665;28;20502;-70
2021/12/19 09:43:43;;;;;;;11.20;7.50;;;4.30;99.90;;;;;;5092042;28;20878;-69
2021/12/19 09:46:12;;;;;;;15.70;8.97;;;4.40;99.90;;;;;;5091716;28;20460;-70
2021/12/19 09:48:40;;;;;;;14.53;9.27;;;4.30;99.90;;;;;;5091700;28;20533;-70
2021/12/19 09:51:08;;;;;;;14.20;8.43;;;4.20;99.90;;;;;;5091679;28;20559;-70
2021/12/19 09:53:38;;;;;;;11.90;8.33;;;4.20;99.90;;;;;;5091607;28;20448;-72
2021/12/19 09:56:06;;;;;;;14.80;8.77;;;4.20;99.90;;;;;;5091440;28;20460;-70
2021/12/19 09:58:33;;;;;;;13.67;9.20;;;4.30;99.90;;;;;;5091393;28;20505;-70
2021/12/19 10:01:01;;;;;;;13.50;8.07;;;4.30;99.90;;;;;;5090834;28;20472;-68
2021/12/19 10:03:28;;;;;;;11.90;9.27;;;4.40;99.90;;;;;;5091356;28;20504;-72
2021/12/19 10:06:17;;;;;;;12.80;8.00;;;4.50;99.90;;;;;;5091497;28;20513;-72
2021/12/19 10:08:48;;;;;;;14.17;8.87;;;4.50;99.90;;;;;;5091198;28;20493;-71
2021/12/19 10:11:32;;;;;;;14.97;9.07;;;4.60;99.90;;;;;;5091486;28;21017;-71
2021/12/19 10:13:59;;;;;;;15.53;8.93;;;4.70;99.90;;;;;;5091042;28;21024;-71
2021/12/19 10:16:29;;;;;;;12.10;8.70;;;4.80;99.90;;;;;;5091439;28;20444;-71
2021/12/19 10:18:59;;;;;;;13.33;8.33;;;4.90;99.90;;;;;;5091129;28;20505;-71
2021/12/19 10:21:27;;;;;;;11.50;8.00;;;4.80;99.90;;;;;;5091121;28;20964;-70
2021/12/19 10:24:00;;;;;;;12.57;8.90;;;4.60;99.90;;;;;;5091064;28;20462;-71
2021/12/19 10:26:41;;;;;;;14.20;10.43;;;4.70;99.90;;;;;;5091428;28;20456;-71
2021/12/19 10:29:08;;;;;;;12.60;8.87;;;4.80;99.90;;;;;;5090972;28;20510;-73
2021/12/19 10:31:35;;;;;;;14.20;10.33;;;4.80;99.90;;;;;;5090980;28;20517;-71
2021/12/19 10:34:20;;;;;;;15.03;9.83;;;4.70;99.90;;;;;;5090881;28;20458;-74
2021/12/19 10:36:48;;;;;;;13.87;10.30;;;4.60;99.90;;;;;;5090540;28;20459;-71
2021/12/19 10:39:19;;;;;;;15.17;10.00;;;4.90;99.90;;;;;;5090872;28;20489;-70
2021/12/19 10:41:58;;;;;;;12.40;9.60;;;4.90;99.90;;;;;;5090831;28;20490;-70
2021/12/19 10:47:25;;;;;;;18.03;10.00;;;5.20;99.90;;;;;;5090283;28;20943;-70
2021/12/19 10:49:53;;;;;;;18.53;10.70;;;5.30;99.90;;;;;;5090420;28;20491;-70
2021/12/19 10:52:37;;;;;;;14.23;9.57;;;5.40;99.90;;;;;;5090378;28;20481;-70
2021/12/19 10:55:09;;;;;;;13.50;9.90;;;5.50;99.90;;;;;;5089373;28;20900;-68
2021/12/19 10:57:38;;;;;;;13.53;10.20;;;5.50;99.90;;;;;;5090549;28;20456;-73
2021/12/19 11:00:09;;;;;;;15.70;11.70;;;5.60;99.90;;;;;;5089595;28;20900;-72
2021/12/19 11:02:39;;;;;;;16.03;11.10;;;5.70;99.90;;;;;;5090560;28;20444;-72
2021/12/19 11:05:08;;;;;;;17.10;12.27;;;5.70;99.90;;;;;;5090422;28;20456;-72
2021/12/19 11:07:36;;;;;;;15.53;11.57;;;5.60;99.90;;;;;;5089723;28;20951;-71
2021/12/19 11:10:27;;;;;;;18.80;11.67;;;5.50;99.90;;;;;;5089964;28;21017;-73
2021/12/19 11:13:07;;;;;;;14.60;11.40;;;5.50;99.90;;;;;;5089510;28;20544;-72
2021/12/19 11:15:34;;;;;;;14.43;11.10;;;5.60;99.90;;;;;;5089961;28;20531;-72
2021/12/19 11:18:02;;;;;;;14.67;9.93;;;5.40;99.90;;;;;;5089713;28;20453;-72
2021/12/19 11:20:29;;;;;;;17.17;9.87;;;5.40;99.90;;;;;;5089678;28;20468;-72
2021/12/19 11:22:56;;;;;;;14.40;10.57;;;5.40;99.90;;;;;;5089870;28;20940;-71
2021/12/19 11:25:24;;;;;;;12.40;9.17;;;5.50;99.90;;;;;;5089816;28;20960;-71
2021/12/19 11:27:52;;;;;;;12.30;9.40;;;5.60;99.90;;;;;;5090191;28;20449;-75
2021/12/19 11:30:20;;;;;;;11.40;8.20;;;5.60;99.90;;;;;;5089738;28;20540;-76
2021/12/19 11:32:59;;;;;;;12.90;8.57;;;5.60;99.90;;;;;;5089532;28;20505;-69
2021/12/19 11:35:29;;;;;;;13.23;9.70;;;5.70;99.90;;;;;;5089710;28;20460;-70
2021/12/19 11:38:00;;;;;;;14.90;10.00;;;5.70;99.90;;;;;;5089759;28;20480;-69
2021/12/19 11:40:31;;;;;;;10.83;8.90;;;5.70;99.90;;;;;;5089850;28;20523;-70
2021/12/19 11:43:05;;;;;;;13.70;9.40;;;5.70;99.90;;;;;;5089904;28;20481;-69
2021/12/19 11:45:36;;;;;;;15.00;9.77;;;6.00;99.90;;;;;;5089625;28;20461;-71
2021/12/19 11:48:16;;;;;;;12.40;8.60;;;6.00;99.90;;;;;;5089692;28;20963;-71
2021/12/19 11:50:48;;;;;;;12.70;8.37;;;6.10;99.90;;;;;;5089507;28;20496;-69
2021/12/19 11:53:25;;;;;;;13.80;8.87;;;6.00;99.90;;;;;;5089878;28;20457;-69
2021/12/19 11:55:54;;;;;;;10.10;7.77;;;5.90;99.90;;;;;;5089538;28;20556;-68
2021/12/19 11:58:42;;;;;;;11.20;7.97;;;5.90;99.90;;;;;;5091204;28;20458;-69
2021/12/19 12:01:11;;;;;;;17.10;9.07;;;5.90;99.90;;;;;;5094003;28;20484;-68
2021/12/19 12:03:57;;;;;;;12.57;8.93;;;5.90;99.90;;;;;;5093876;28;20457;-69
2021/12/19 12:06:36;;;;;;;10.53;8.23;;;5.90;99.90;;;;;;5093547;28;20482;-69
2021/12/19 12:09:10;;;;;;;12.77;7.97;;;5.90;99.90;;;;;;5093683;28;20835;-71
2021/12/19 12:11:39;;;;;;;12.10;8.40;;;5.70;99.90;;;;;;5093735;28;20464;-69
2021/12/19 12:14:26;;;;;;;15.37;9.83;;;5.40;99.90;;;;;;5093392;28;20488;-69
2021/12/19 12:16:56;;;;;;;14.00;9.30;;;5.10;99.90;;;;;;5093664;28;20452;-72
2021/12/19 12:19:41;;;;;;;12.07;8.10;;;4.90;99.90;;;;;;5093572;28;20805;-69
2021/12/19 12:22:48;;;;;;;12.90;9.47;;;4.90;99.90;;;;;;5093478;28;20527;-69
2021/12/19 12:25:18;;;;;;;13.70;8.07;;;4.60;99.90;;;;;;5093454;28;20454;-69
2021/12/19 12:27:50;;;;;;;13.30;8.80;;;4.50;99.90;;;;;;5093502;28;20459;-69
2021/12/19 12:30:23;;;;;;;14.10;10.73;;;4.50;99.90;;;;;;5093457;28;20494;-71
2021/12/19 12:32:50;;;;;;;13.77;9.50;;;4.60;99.90;;;;;;5093380;28;20444;-70
2021/12/19 12:35:19;;;;;;;14.37;8.30;;;4.50;99.90;;;;;;5093070;28;20455;-69
2021/12/19 12:37:48;;;;;;;19.73;10.80;;;4.60;99.90;;;;;;5093147;28;20451;-69
2021/12/19 12:40:26;;;;;;;14.60;10.53;;;4.70;99.90;;;;;;5093078;28;20527;-70
2021/12/19 12:43:11;;;;;;;13.13;9.37;;;4.70;99.90;;;;;;5093118;28;20458;-69
2021/12/19 12:46:00;;;;;;;13.70;10.30;;;4.70;99.90;;;;;;5092953;28;20460;-69
2021/12/19 12:48:34;;;;;;;13.80;9.67;;;4.60;99.90;;;;;;5092980;28;20455;-69
2021/12/19 12:51:04;;;;;;;16.10;11.33;;;4.70;99.90;;;;;;5092648;28;20892;-73
2021/12/19 12:53:34;;;;;;;16.13;10.87;;;4.70;99.90;;;;;;5092455;28;20450;-69
2021/12/19 12:56:10;;;;;;;15.83;10.23;;;4.70;99.90;;;;;;5092606;28;20463;-69
2021/12/19 12:58:39;;;;;;;14.93;10.67;;;4.70;99.90;;;;;;5092390;28;20863;-70
2021/12/19 13:01:26;;;;;;;14.53;9.13;;;4.50;99.90;;;;;;5092420;28;20870;-69
2021/12/19 13:03:59;;;;;;;16.97;9.47;;;4.60;99.90;;;;;;5092842;28;20803;-69
2021/12/19 13:06:37;;;;;;;13.80;9.40;;;4.50;99.90;;;;;;5092438;28;20471;-69
2021/12/19 13:09:17;;;;;;;16.73;10.07;;;4.50;99.90;;;;;;5092504;28;20851;-69
2021/12/19 13:11:44;;;;;;;17.57;11.70;;;4.50;99.90;;;;;;5092440;28;20471;-69
2021/12/19 13:14:17;;;;;;;15.77;10.40;;;4.70;99.90;;;;;;5092406;28;20483;-69
2021/12/19 13:17:01;;;;;;;16.40;10.10;;;4.60;99.90;;;;;;5092681;28;20456;-70
2021/12/19 13:19:40;;;;;;;16.60;10.80;;;4.70;99.90;;;;;;5092188;28;20452;-69
2021/12/19 13:22:08;;;;;;;17.53;12.27;;;4.70;99.90;;;;;;5092336;28;20464;-69
2021/12/19 13:24:36;;;;;;;24.90;13.07;;;4.70;99.90;;;;;;5092320;28;20513;-69
2021/12/19 13:27:09;;;;;;;17.93;12.10;;;4.80;99.90;;;;;;5092229;28;20447;-69
2021/12/19 13:29:37;;;;;;;19.57;13.13;;;4.80;99.90;;;;;;5092105;28;20816;-70
2021/12/19 13:32:28;;;;;;;20.23;13.27;;;4.80;99.90;;;;;;5092206;28;20812;-69
2021/12/19 13:34:55;;;;;;;21.10;11.83;;;4.80;99.90;;;;;;5092178;28;20509;-71
2021/12/19 13:37:23;;;;;;;24.17;12.80;;;4.90;99.90;;;;;;5092111;28;20478;-70
2021/12/19 13:40:07;;;;;;;17.23;12.70;;;4.80;99.90;;;;;;5092027;28;20448;-70
2021/12/19 13:42:46;;;;;;;22.27;14.00;;;4.80;99.90;;;;;;5091922;28;20451;-67
2021/12/19 13:45:32;;;;;;;19.00;13.67;;;4.80;99.90;;;;;;5092051;28;20466;-69
2021/12/19 13:48:04;;;;;;;18.60;11.30;;;4.80;99.90;;;;;;5091941;28;20462;-70
2021/12/19 13:50:32;;;;;;;20.47;15.37;;;4.80;99.90;;;;;;5091333;28;20492;-69
2021/12/19 13:53:00;;;;;;;18.30;11.10;;;4.70;99.90;;;;;;5091945;28;20533;-68